Islamabad, Pakistan

3:28 PM PKT on October 23, 2014 (GMT +0500)
Chacklala International | Change Station
CLOSE
Current Station
Airport
Location: Islamabad,
Elevation: 1667 ft
Nearby Weather Stations

Elev 1667 ft 33.62 °N, 73.10 °E | Updated 28 minutes ago

Partly Cloudy
Partly Cloudy
88 °F
Feels Like 88 °F
N
7
Wind Variable Wind from SW

Today
High -- | Low -- °F
--% Chance of Precip.
Yesterday
High -- | Low -- °F
Precip. -- in
6:18 AM 5:24 PM
Waning Crescent, 0% visible
Pressure 29.98 in
Visibility 3.7 miles
Clouds Few 10000 ft
Heat Index 88 °F
Dew Point 61 °F
Humidity 40%
Rainfall 0.00 in
Snow Depth Not available.
UV 2 out of 12
Pollen Not available.
Air Quality Not available.
Flu Activity Not available.
METAR OPRN 231000Z 23006KT 6000 FEW100 31/16 Q1015.0/29.97

More Conditions Fewer Conditions

Pressure 29.98 in
Visibility 3.7 miles
Clouds Few 10000 ft
Heat Index 88 °F
Dew Point 61 °F
Humidity 40%
Rainfall 0.00 in
Snow Depth Not available.
UV 2 out of 12
Pollen Not available.
Air Quality Not available.
Flu Activity Not available.
METAR OPRN 231000Z 23006KT 6000 FEW100 31/16 Q1015.0/29.97

More Conditions Fewer Conditions

10-Day Weather Forecast

Almanac

Astronomy

Oct. 23, 2014 Rise Set
Actual Time 6:18 AM PKT 5:24 PM PKT
Civil Twilight 5:53 AM PKT 5:50 PM PKT
Nautical Twilight 5:24 AM PKT 6:19 PM PKT
Astronomical Twilight 4:55 AM PKT 6:48 PM PKT
Moon 5:33 AM PKT 5:09 PM PKT
Length of Visible Light 11h 57m
Length of Day
11h 06m
Tomorrow will be 1m 56s shorter.
Waning Crescent, 0% of the Moon is Illuminated
Today
Waning Crescent
Oct 23
New
Oct 30
First Quarter
Nov 6
Full
Nov 14
Last Quarter

Yesterday's Extremes

Country Highs Country Lows

Community

WunderPhotos

Upload Photos

1,764,202 photos uploaded!

Nearby

Snow Depth

Not available.

Earthquake Activity

City Distance Mag. Time & Date
No recent earthquake activity has been reported nearby.
Minimum magnitude displayed is 2.5.

Coastal Water Temperatures

Place Temperature
No Stations Reporting

Nearby Weather Stations